Santo Domingo de Guzmán, República Dominicana

12:25 AM AST en Mayo 06, 2015 (GMT -0400)
Zona Universitaria | | Change Station
CLOSE
Current Station
Estación meteorológica personal
Location: Santo Domingo, NATIONAL DISTRICT
Altura: 52 ft
Estaciones meteorológicas cercanas

Alt 52 ft 18.46 °N, 69.91 °W | Updated 8 seconds ago

Partly Cloudy
Parcialmente nublado
82.4 ° F
Sensación térmica 85 ° F
N
0.9
Viento Variable Viento desde SSE
Gusts 2.5 mph

Hoy
Alta -- | Baja -- ° F
--% Posibilidad de precipitaciones
Ayer
Alta -- | Baja -- ° F
Precip. -- pul
6:09 AM 7:02 PM
Gibosa menguante, 96% visible
Presión 30.06 pul
Visibilidad 6.2 Millas
Nubes Baja 2000 ft
Índice de calor 85 ° F
Punto de rocío 66 ° F
Humedad 58%
Precipitaciones 0.00 pul
Espesor de la nieve No disponible.
UV 0 de una escala de 12
Polen No disponible.
Calidad del aire No disponible.
Flu Activity No disponible.
METAR MDSD 060400Z 07004KT 9999 FEW020 25/21 Q1018 NOSIG

More Conditions Fewer Conditions

Presión 30.06 pul
Visibilidad 6.2 Millas
Nubes Baja 2000 ft
Índice de calor 85 ° F
Punto de rocío 66 ° F
Humedad 58%
Precipitaciones 0.00 pul
Espesor de la nieve No disponible.
UV 0 de una escala de 12
Polen No disponible.
Calidad del aire No disponible.
Flu Activity No disponible.
METAR MDSD 060400Z 07004KT 9999 FEW020 25/21 Q1018 NOSIG

More Conditions Fewer Conditions

10-Day Weather Forecast

Almanac

Astronomía

May. 06, 2015 Salida Puesta
Hora real
Crepúsculo civil
Crepúsculo náutico
Crepúsculo astronómico
Luna
Horas de luz
Horas de luz
Tomorrow will be .
, % of the Moon is Illuminated

Extremos de hoy

Máximos del país Bajas del país

Community

WunderPhotos

Upload Photos

1,818,975 ¡fotos cargadas!

WunderBlogs® & News

Nearby

Calidad del aire

  Calidad del aire Índice AQ Contaminante
Not available.

Grosos de nieve

Estación Profundido Altura

Actividad de terremotos

Ciudad Distance Mag. Tiempo y dato
Magnitud mínima muestra es 2,5.

Temperaturas de aguas costeras

Lugar Temperatura

Stations

Estaciones meteorológicas cercanas

Ubicación de la estación Temp. Vientos helados Punto de rocío Humedad Viento Precip. Alt Actualizado Tipo